createdAt,value
2017-01-20T00:00:25.378Z,15.78
2017-01-20T00:01:34.365Z,15.66
2017-01-20T00:02:43.381Z,15.67
2017-01-20T00:03:52.365Z,15.55
2017-01-20T00:05:01.361Z,15.37
2017-01-20T00:06:10.345Z,15.36
2017-01-20T00:07:19.324Z,15.41
2017-01-20T00:08:28.316Z,15.52
2017-01-20T00:09:37.299Z,15.67
2017-01-20T00:10:46.292Z,15.69
2017-01-20T00:11:55.268Z,15.59
2017-01-20T00:13:04.279Z,15.49
2017-01-20T00:14:13.254Z,15.48
2017-01-20T00:15:22.252Z,15.55
2017-01-20T00:16:31.231Z,15.56
2017-01-20T00:17:40.226Z,15.41
2017-01-20T00:18:49.204Z,15.45
2017-01-20T00:19:58.188Z,15.53
2017-01-20T00:21:07.202Z,15.52
2017-01-20T00:22:16.198Z,15.53
2017-01-20T00:23:25.194Z,15.61
2017-01-20T00:24:34.181Z,15.61
2017-01-20T00:25:43.182Z,15.53
2017-01-20T00:26:52.168Z,15.45
2017-01-20T00:28:01.148Z,15.34
2017-01-20T00:29:10.128Z,15.36
2017-01-20T00:30:19.109Z,15.42
2017-01-20T00:31:28.099Z,15.45
2017-01-20T00:32:37.090Z,15.27
2017-01-20T00:33:46.107Z,15.06
2017-01-20T00:34:55.090Z,15.11
2017-01-20T00:36:04.073Z,15.12
2017-01-20T00:37:13.048Z,15.15
2017-01-20T00:38:22.032Z,15.11
2017-01-20T00:39:31.013Z,15.16
2017-01-20T00:40:39.999Z,15
2017-01-20T00:41:48.994Z,14.93
2017-01-20T00:42:57.988Z,14.93
2017-01-20T00:44:06.979Z,15.05
2017-01-20T00:45:15.980Z,15.08
2017-01-20T00:46:24.998Z,14.98
2017-01-20T00:47:33.990Z,14.91
2017-01-20T00:48:42.982Z,14.84
2017-01-20T00:49:51.961Z,14.9
2017-01-20T00:51:00.956Z,14.74
2017-01-20T00:52:09.930Z,14.68
2017-01-20T00:53:18.941Z,14.71
2017-01-20T00:54:27.948Z,14.6
2017-01-20T00:55:36.928Z,14.63
2017-01-20T00:56:45.902Z,14.63
2017-01-20T00:57:54.890Z,14.63
2017-01-20T00:59:03.880Z,14.6
2017-01-20T01:00:12.871Z,14.62
2017-01-20T01:01:21.860Z,14.62
2017-01-20T01:02:30.847Z,14.67
2017-01-20T01:03:39.836Z,14.59
2017-01-20T01:04:48.822Z,14.59
2017-01-20T01:05:57.809Z,14.6
2017-01-20T01:07:06.798Z,14.62
2017-01-20T01:08:15.780Z,14.63
2017-01-20T01:09:24.765Z,14.42
2017-01-20T01:10:33.759Z,14.42
2017-01-20T01:11:42.749Z,14.38
2017-01-20T01:12:51.762Z,14.37
2017-01-20T01:14:00.740Z,14.37
2017-01-20T01:15:09.729Z,14.39
2017-01-20T01:16:18.718Z,14.28
2017-01-20T01:17:27.710Z,14.32
2017-01-20T01:18:36.694Z,14.3
2017-01-20T01:19:45.664Z,14.23
2017-01-20T01:20:54.674Z,14.23
2017-01-20T01:22:03.669Z,14.24
2017-01-20T01:23:12.671Z,14.23
2017-01-20T01:24:21.869Z,14.1
2017-01-20T01:25:30.844Z,14.19
2017-01-20T01:26:39.834Z,14.19
2017-01-20T01:27:48.816Z,14.1
2017-01-20T01:28:57.799Z,14.05
2017-01-20T01:30:06.786Z,14.09
2017-01-20T01:31:15.776Z,14.1
2017-01-20T01:32:24.751Z,14.05
2017-01-20T01:33:33.731Z,13.97
2017-01-20T01:34:42.726Z,14.02
2017-01-20T01:35:51.703Z,14.02
2017-01-20T01:37:00.703Z,14.04
2017-01-20T01:38:09.686Z,14.09
2017-01-20T01:39:18.677Z,14.01
2017-01-20T01:40:27.665Z,13.97
2017-01-20T01:41:36.660Z,14.01
2017-01-20T01:42:45.654Z,13.92
2017-01-20T01:43:54.651Z,14.01
2017-01-20T01:45:03.637Z,13.94
2017-01-20T01:46:12.620Z,13.99
2017-01-20T01:47:21.606Z,13.94
2017-01-20T01:48:30.604Z,13.91
2017-01-20T01:49:39.579Z,13.92
2017-01-20T01:50:48.568Z,13.79
2017-01-20T01:51:57.558Z,13.83
2017-01-20T01:53:06.556Z,13.79
2017-01-20T01:54:15.553Z,13.76
2017-01-20T01:55:24.531Z,13.77
2017-01-20T01:56:33.533Z,13.79
2017-01-20T01:57:42.520Z,13.79
2017-01-20T01:58:51.500Z,13.73
2017-01-20T02:00:00.489Z,13.84
2017-01-20T02:01:09.480Z,13.86
2017-01-20T02:02:18.465Z,13.84
2017-01-20T02:03:27.445Z,13.87
2017-01-20T02:04:36.434Z,13.74
2017-01-20T02:05:45.413Z,13.73
2017-01-20T02:06:54.397Z,13.74
2017-01-20T02:08:03.389Z,13.69
2017-01-20T02:09:12.374Z,13.69
2017-01-20T02:10:21.356Z,13.69
2017-01-20T02:11:30.350Z,13.68
2017-01-20T02:12:39.322Z,13.64
2017-01-20T02:13:48.315Z,13.56
2017-01-20T02:14:57.296Z,13.73
2017-01-20T02:16:06.292Z,13.64
2017-01-20T02:17:15.264Z,13.64
2017-01-20T02:18:24.253Z,13.47
2017-01-20T02:19:33.229Z,13.61
2017-01-20T02:20:42.222Z,13.55
2017-01-20T02:21:51.219Z,13.55
2017-01-20T02:23:00.204Z,13.49
2017-01-20T02:24:09.172Z,13.5
2017-01-20T02:25:18.162Z,13.56
2017-01-20T02:26:27.135Z,13.5
2017-01-20T02:27:36.120Z,13.39
2017-01-20T02:28:45.111Z,13.49
2017-01-20T02:29:54.103Z,13.39
2017-01-20T02:31:03.080Z,13.27
2017-01-20T02:32:12.110Z,13.32
2017-01-20T02:33:21.094Z,13.3
2017-01-20T02:34:30.088Z,13.27
2017-01-20T02:35:39.129Z,13.32
2017-01-20T02:36:48.103Z,13.24
2017-01-20T02:37:57.079Z,13.2
2017-01-20T02:39:06.075Z,13.27
2017-01-20T02:40:15.059Z,13.25
2017-01-20T02:41:24.086Z,13.3
2017-01-20T02:42:33.087Z,13.3
2017-01-20T02:43:42.067Z,13.3
2017-01-20T02:44:51.042Z,13.31
2017-01-20T02:46:00.044Z,13.28
2017-01-20T02:47:09.038Z,13.21
2017-01-20T02:48:18.019Z,13.13
2017-01-20T02:49:27.006Z,13.2
2017-01-20T02:50:35.993Z,13.13
2017-01-20T02:51:44.991Z,13.15
2017-01-20T02:52:53.978Z,13.1
2017-01-20T02:54:02.960Z,13.18
2017-01-20T02:55:11.951Z,13.27
2017-01-20T02:56:20.932Z,13.2
2017-01-20T02:57:29.909Z,13.13
2017-01-20T02:58:38.887Z,13.03
2017-01-20T02:59:47.880Z,12.91
2017-01-20T03:00:56.857Z,12.98
2017-01-20T03:02:05.835Z,12.98
2017-01-20T03:03:14.822Z,12.92
2017-01-20T03:04:23.804Z,12.81
2017-01-20T03:05:32.823Z,12.91
2017-01-20T03:06:41.806Z,13.07
2017-01-20T03:07:50.782Z,13.1
2017-01-20T03:08:59.800Z,13.15
2017-01-20T03:10:08.781Z,13.07
2017-01-20T03:11:17.762Z,12.95
2017-01-20T03:12:26.751Z,12.95
2017-01-20T03:13:35.746Z,12.88
2017-01-20T03:14:44.728Z,12.94
2017-01-20T03:15:53.715Z,12.92
2017-01-20T03:17:02.704Z,12.92
2017-01-20T03:18:11.692Z,12.91
2017-01-20T03:19:20.672Z,12.84
2017-01-20T03:20:29.645Z,12.76
2017-01-20T03:21:38.631Z,12.95
2017-01-20T03:22:47.625Z,12.78
2017-01-20T03:23:56.628Z,12.81
2017-01-20T03:25:05.612Z,12.8
2017-01-20T03:26:14.590Z,12.84
2017-01-20T03:27:23.566Z,12.84
2017-01-20T03:28:32.555Z,12.78
2017-01-20T03:29:41.545Z,12.69
2017-01-20T03:30:50.953Z,12.82
2017-01-20T03:31:59.942Z,12.76
2017-01-20T03:33:08.941Z,12.88
2017-01-20T03:34:17.924Z,12.81
2017-01-20T03:35:26.913Z,12.8
2017-01-20T03:36:35.900Z,12.73
2017-01-20T03:37:44.907Z,12.69
2017-01-20T03:38:53.889Z,12.66
2017-01-20T03:40:02.870Z,12.6
2017-01-20T03:41:11.857Z,12.62
2017-01-20T03:42:20.840Z,12.62
2017-01-20T03:43:29.816Z,12.58
2017-01-20T03:44:38.804Z,12.63
2017-01-20T03:45:47.818Z,12.69
2017-01-20T03:46:56.848Z,12.65
2017-01-20T03:48:05.827Z,12.65
2017-01-20T03:49:14.801Z,12.65
2017-01-20T03:50:23.788Z,12.67
2017-01-20T03:51:32.769Z,12.66
2017-01-20T03:52:41.774Z,12.67
2017-01-20T03:53:50.756Z,12.7
2017-01-20T03:54:59.748Z,12.69
2017-01-20T03:56:08.728Z,12.55
2017-01-20T03:57:17.714Z,12.55
2017-01-20T03:58:26.760Z,12.57
2017-01-20T03:59:35.736Z,12.52
2017-01-20T04:00:44.727Z,12.54
2017-01-20T04:01:53.722Z,12.62
2017-01-20T04:03:02.707Z,12.69
2017-01-20T04:04:11.742Z,12.62
2017-01-20T04:05:20.735Z,12.52
2017-01-20T04:06:29.724Z,12.57
2017-01-20T04:07:38.703Z,12.49
2017-01-20T04:08:47.692Z,12.48
2017-01-20T04:09:56.667Z,12.62
2017-01-20T04:11:05.662Z,12.54
2017-01-20T04:12:14.657Z,12.55
2017-01-20T04:13:23.630Z,12.55
2017-01-20T04:14:32.640Z,12.48
2017-01-20T04:15:41.616Z,12.32
2017-01-20T04:16:50.589Z,12.32
2017-01-20T04:17:59.586Z,12.29
2017-01-20T04:19:08.576Z,12.3
2017-01-20T04:20:17.558Z,12.34
2017-01-20T04:21:26.530Z,12.32
2017-01-20T04:22:35.544Z,12.39
2017-01-20T04:23:44.559Z,12.32
2017-01-20T04:24:53.547Z,12.32
2017-01-20T04:26:02.541Z,12.33
2017-01-20T04:27:11.508Z,12.27
2017-01-20T04:28:20.491Z,12.34
2017-01-20T04:29:29.474Z,12.42
2017-01-20T04:30:38.458Z,12.33
2017-01-20T04:31:47.444Z,12.29
2017-01-20T04:32:56.427Z,12.32
2017-01-20T04:34:05.400Z,12.27
2017-01-20T04:35:14.378Z,12.32
2017-01-20T04:36:23.366Z,12.34
2017-01-20T04:37:32.355Z,12.16
2017-01-20T04:38:41.333Z,12.21
2017-01-20T04:39:50.320Z,12.16
2017-01-20T04:40:59.296Z,12.15
2017-01-20T04:42:08.284Z,12.33
2017-01-20T04:43:17.269Z,12.21
2017-01-20T04:44:26.257Z,12.24
2017-01-20T04:45:35.242Z,12.23
2017-01-20T04:46:44.231Z,12.21
2017-01-20T04:47:53.212Z,12.27
2017-01-20T04:49:02.192Z,12.21
2017-01-20T04:50:11.240Z,12.11
2017-01-20T04:51:20.221Z,12.15
2017-01-20T04:52:29.201Z,12.18
2017-01-20T04:53:38.262Z,12.18
2017-01-20T04:54:47.249Z,12.29
2017-01-20T04:55:56.233Z,12.19
2017-01-20T04:57:05.215Z,12.19
2017-01-20T04:58:14.200Z,12.21
2017-01-20T04:59:23.175Z,12.15
2017-01-20T05:00:32.155Z,12.26
2017-01-20T05:01:41.136Z,12.14
2017-01-20T05:02:50.125Z,12.14
2017-01-20T05:03:59.127Z,12.16
2017-01-20T05:05:08.111Z,12.14
2017-01-20T05:06:17.099Z,12.12
2017-01-20T05:07:26.088Z,12.24
2017-01-20T05:08:35.073Z,12.14
2017-01-20T05:09:44.068Z,12.04
2017-01-20T05:10:53.045Z,12.07
2017-01-20T05:12:02.037Z,12.08
2017-01-20T05:13:11.020Z,12.01
2017-01-20T05:14:20.011Z,12
2017-01-20T05:15:28.994Z,12.04
2017-01-20T05:16:38.005Z,12.07
2017-01-20T05:17:46.980Z,12.12
2017-01-20T05:18:55.969Z,12.09
2017-01-20T05:20:04.939Z,12.12
2017-01-20T05:21:13.931Z,12.23
2017-01-20T05:22:22.935Z,12.19
2017-01-20T05:23:31.917Z,12.19
2017-01-20T05:24:40.902Z,12.11
2017-01-20T05:25:49.889Z,12.16
2017-01-20T05:26:58.958Z,12.16
2017-01-20T05:28:08.183Z,12.01
2017-01-20T05:29:17.707Z,12.07
2017-01-20T05:30:26.708Z,12.07
2017-01-20T05:31:35.696Z,12.05
2017-01-20T05:32:44.698Z,12.12
2017-01-20T05:33:53.680Z,12
2017-01-20T05:35:02.679Z,12.11
2017-01-20T05:36:11.660Z,12.01
2017-01-20T05:37:20.647Z,12
2017-01-20T05:38:29.629Z,11.99
2017-01-20T05:39:38.625Z,11.97
2017-01-20T05:40:47.616Z,12.05
2017-01-20T05:41:56.599Z,12
2017-01-20T05:43:05.586Z,12.07
2017-01-20T05:44:14.569Z,12.04
2017-01-20T05:45:23.555Z,12.04
2017-01-20T05:46:32.537Z,12.04
2017-01-20T05:47:41.524Z,11.96
2017-01-20T05:48:50.503Z,11.93
2017-01-20T05:49:59.501Z,11.93
2017-01-20T05:51:08.496Z,11.94
2017-01-20T05:52:17.476Z,11.94
2017-01-20T05:53:26.461Z,12
2017-01-20T05:54:35.440Z,12.05
2017-01-20T05:55:44.423Z,11.88
2017-01-20T05:56:53.406Z,12.04
2017-01-20T05:58:02.388Z,11.93
2017-01-20T05:59:11.381Z,11.94
2017-01-20T06:00:20.365Z,12.04
2017-01-20T06:01:29.357Z,12.62
2017-01-20T06:02:38.336Z,12.92
2017-01-20T06:03:47.359Z,13.32
2017-01-20T06:04:56.385Z,13.41
2017-01-20T06:06:05.363Z,13.55
2017-01-20T06:07:14.343Z,13.68
2017-01-20T06:08:23.335Z,13.65
2017-01-20T06:09:32.350Z,13.73
2017-01-20T06:10:41.323Z,13.92
2017-01-20T06:11:50.309Z,14.04
2017-01-20T06:12:59.292Z,14.16
2017-01-20T06:14:08.284Z,14.32
2017-01-20T06:15:17.257Z,14.35
2017-01-20T06:16:26.248Z,14.41
2017-01-20T06:17:35.251Z,14.37
2017-01-20T06:18:44.250Z,14.3
2017-01-20T06:19:53.224Z,14.12
2017-01-20T06:21:02.201Z,14.1
2017-01-20T06:22:11.191Z,14.02
2017-01-20T06:23:20.177Z,14.13
2017-01-20T06:24:29.190Z,14.35
2017-01-20T06:25:38.171Z,14.42
2017-01-20T06:26:47.147Z,14.49
2017-01-20T06:27:56.128Z,14.57
2017-01-20T06:29:05.124Z,14.59
2017-01-20T06:30:14.108Z,14.6
2017-01-20T06:31:23.086Z,14.68
2017-01-20T06:32:32.069Z,14.7
2017-01-20T06:33:41.049Z,14.82
2017-01-20T06:34:50.031Z,14.84
2017-01-20T06:35:59.019Z,14.91
2017-01-20T06:37:08.034Z,14.98
2017-01-20T06:38:17.014Z,14.96
2017-01-20T06:39:26.005Z,15.01
2017-01-20T06:40:34.991Z,15.04
2017-01-20T06:41:43.980Z,15.08
2017-01-20T06:42:52.956Z,15.12
2017-01-20T06:44:01.941Z,15.15
2017-01-20T06:45:10.925Z,15.21
2017-01-20T06:46:19.918Z,15.24
2017-01-20T06:47:28.904Z,15.26
2017-01-20T06:48:37.893Z,15.33
2017-01-20T06:49:46.876Z,15.33
2017-01-20T06:50:55.863Z,15.45
2017-01-20T06:52:04.854Z,15.52
2017-01-20T06:53:13.844Z,15.53
2017-01-20T06:54:22.820Z,15.56
2017-01-20T06:55:31.804Z,15.56
2017-01-20T06:56:40.791Z,15.63
2017-01-20T06:57:49.784Z,15.67
2017-01-20T06:58:58.775Z,15.7
2017-01-20T07:00:07.767Z,15.76
2017-01-20T07:01:16.785Z,15.81
2017-01-20T07:02:25.763Z,15.78
2017-01-20T07:03:34.764Z,15.88
2017-01-20T07:04:43.770Z,15.91
2017-01-20T07:05:52.758Z,15.94
2017-01-20T07:07:01.745Z,16.01
2017-01-20T07:08:10.726Z,16.09
2017-01-20T07:09:19.712Z,16.07
2017-01-20T07:10:28.696Z,16.01
2017-01-20T07:11:37.682Z,16.07
2017-01-20T07:12:46.653Z,16.03
2017-01-20T07:13:55.639Z,16
2017-01-20T07:15:04.631Z,16.06
2017-01-20T07:16:13.627Z,16
2017-01-20T07:17:22.735Z,16.01
2017-01-20T07:18:32.001Z,16.07
2017-01-20T07:19:40.980Z,16.14
2017-01-20T07:20:49.963Z,16.22
2017-01-20T07:21:58.950Z,16.1
2017-01-20T07:23:07.939Z,16.23
2017-01-20T07:24:16.930Z,16.22
2017-01-20T07:25:25.908Z,16.26
2017-01-20T07:26:34.917Z,16.26
2017-01-20T07:27:43.890Z,16.32
2017-01-20T07:28:52.893Z,16.3
2017-01-20T07:30:02.078Z,16.38
2017-01-20T07:31:13.716Z,16.38
2017-01-20T07:32:22.697Z,16.34
2017-01-20T07:33:31.674Z,16.29
2017-01-20T07:34:40.700Z,16.35
2017-01-20T07:35:49.687Z,16.35
2017-01-20T07:36:58.684Z,16.3
2017-01-20T07:38:07.674Z,16.17
2017-01-20T07:39:16.653Z,16
2017-01-20T07:40:25.638Z,15.74
2017-01-20T07:41:34.623Z,15.52
2017-01-20T07:42:43.608Z,15.53
2017-01-20T07:43:52.594Z,15.37
2017-01-20T07:45:01.587Z,15.21
2017-01-20T07:46:10.568Z,15.27
2017-01-20T07:47:19.566Z,15.24
2017-01-20T07:48:28.557Z,15.11
2017-01-20T07:49:37.539Z,15.16
2017-01-20T07:50:46.529Z,14.98
2017-01-20T07:51:55.503Z,14.98
2017-01-20T07:53:04.483Z,14.96
2017-01-20T07:54:13.470Z,14.8
2017-01-20T07:55:22.466Z,14.87
2017-01-20T07:56:31.448Z,14.79
2017-01-20T07:57:40.445Z,14.82
2017-01-20T07:58:49.421Z,14.74
2017-01-20T07:59:58.399Z,14.63
2017-01-20T08:01:07.389Z,14.57
2017-01-20T08:02:16.381Z,14.62
2017-01-20T08:03:25.373Z,14.56
2017-01-20T08:04:34.375Z,14.49
2017-01-20T08:05:43.362Z,14.53
2017-01-20T08:06:52.355Z,14.49
2017-01-20T08:08:01.328Z,14.47
2017-01-20T08:09:10.327Z,14.44
2017-01-20T08:10:19.306Z,14.35
2017-01-20T08:11:28.301Z,14.24
2017-01-20T08:12:37.282Z,14.28
2017-01-20T08:13:46.709Z,14.22
2017-01-20T08:14:55.701Z,14.19
2017-01-20T08:16:04.690Z,14.09
2017-01-20T08:17:13.677Z,14.12
2017-01-20T08:18:22.658Z,14.13
2017-01-20T08:19:31.655Z,14.04
2017-01-20T08:20:40.669Z,14.02
2017-01-20T08:21:49.645Z,14.05
2017-01-20T08:22:58.644Z,14.04
2017-01-20T08:24:07.660Z,14.13
2017-01-20T08:25:16.641Z,14.02
2017-01-20T08:26:25.655Z,13.99
2017-01-20T08:27:34.629Z,14.05
2017-01-20T08:28:43.628Z,14.06
2017-01-20T08:29:52.623Z,14.02
2017-01-20T08:31:01.596Z,14.02
2017-01-20T08:32:10.583Z,13.89
2017-01-20T08:33:19.574Z,13.92
2017-01-20T08:34:28.587Z,13.86
2017-01-20T08:35:37.578Z,13.84
2017-01-20T08:36:46.564Z,13.86
2017-01-20T08:37:55.535Z,13.8
2017-01-20T08:39:04.515Z,13.84
2017-01-20T08:40:13.512Z,13.86
2017-01-20T08:41:22.514Z,13.83
2017-01-20T08:42:31.507Z,13.84
2017-01-20T08:43:40.491Z,13.84
2017-01-20T08:44:49.472Z,13.8
2017-01-20T08:45:58.484Z,13.77
2017-01-20T08:47:07.474Z,13.72
2017-01-20T08:48:16.458Z,13.68
2017-01-20T08:49:25.450Z,13.65
2017-01-20T08:50:34.442Z,13.55
2017-01-20T08:51:43.447Z,13.66
2017-01-20T08:52:52.435Z,13.65
2017-01-20T08:54:01.422Z,13.62
2017-01-20T08:55:10.399Z,13.58
2017-01-20T08:56:19.381Z,13.59
2017-01-20T08:57:28.368Z,13.69
2017-01-20T08:58:37.384Z,13.61
2017-01-20T08:59:46.356Z,13.65
2017-01-20T09:00:55.345Z,13.65
2017-01-20T09:02:04.340Z,13.65
2017-01-20T09:03:13.321Z,13.55
2017-01-20T09:04:22.315Z,13.65
2017-01-20T09:05:31.299Z,13.64
2017-01-20T09:06:40.278Z,13.61
2017-01-20T09:07:49.265Z,13.65
2017-01-20T09:08:58.346Z,13.66
2017-01-20T09:10:07.340Z,13.62
2017-01-20T09:11:16.330Z,13.66
2017-01-20T09:12:25.303Z,13.62
2017-01-20T09:13:34.289Z,13.56
2017-01-20T09:14:43.278Z,13.43
2017-01-20T09:15:52.262Z,13.47
2017-01-20T09:17:01.259Z,13.49
2017-01-20T09:18:10.244Z,13.47
2017-01-20T09:19:19.225Z,13.56
2017-01-20T09:20:28.218Z,13.56
2017-01-20T09:21:37.198Z,13.58
2017-01-20T09:22:46.184Z,13.59
2017-01-20T09:23:55.186Z,13.61
2017-01-20T09:25:04.165Z,13.55
2017-01-20T09:26:13.147Z,13.46
2017-01-20T09:27:22.153Z,13.54
2017-01-20T09:28:31.129Z,13.44
2017-01-20T09:29:40.121Z,13.47
2017-01-20T09:30:49.108Z,13.43
2017-01-20T09:31:58.106Z,13.51
2017-01-20T09:33:07.081Z,13.47
2017-01-20T09:34:16.071Z,13.49
2017-01-20T09:35:25.046Z,13.41
2017-01-20T09:36:34.036Z,13.31
2017-01-20T09:37:43.011Z,13.43
2017-01-20T09:38:51.989Z,13.44
2017-01-20T09:40:00.973Z,13.4
2017-01-20T09:41:09.967Z,13.3
2017-01-20T09:42:18.949Z,13.28
2017-01-20T09:43:27.929Z,13.41
2017-01-20T09:44:36.925Z,13.4
2017-01-20T09:45:45.901Z,13.43
2017-01-20T09:46:54.888Z,13.3
2017-01-20T09:48:03.868Z,13.37
2017-01-20T09:49:12.886Z,13.37
2017-01-20T09:50:21.872Z,13.43
2017-01-20T09:51:30.856Z,13.4
2017-01-20T09:52:39.906Z,13.46
2017-01-20T09:53:48.890Z,13.36
2017-01-20T09:54:57.882Z,13.43
2017-01-20T09:56:06.880Z,13.37
2017-01-20T09:57:15.860Z,13.3
2017-01-20T09:58:24.852Z,13.44
2017-01-20T09:59:33.841Z,13.47
2017-01-20T10:00:42.831Z,13.43
2017-01-20T10:01:51.811Z,13.43
2017-01-20T10:03:00.805Z,13.4
2017-01-20T10:04:09.782Z,13.47
2017-01-20T10:05:18.767Z,13.43
2017-01-20T10:06:27.751Z,13.37
2017-01-20T10:07:36.720Z,13.31
2017-01-20T10:08:45.719Z,13.44
2017-01-20T10:09:54.719Z,13.43
2017-01-20T10:11:03.711Z,13.47
2017-01-20T10:12:12.702Z,13.41
2017-01-20T10:13:21.694Z,13.5
2017-01-20T10:14:30.673Z,13.54
2017-01-20T10:15:39.657Z,13.5
2017-01-20T10:16:48.640Z,13.44
2017-01-20T10:17:57.622Z,13.56
2017-01-20T10:19:06.623Z,13.64
2017-01-20T10:20:15.609Z,13.51
2017-01-20T10:21:24.595Z,13.59
2017-01-20T10:22:33.637Z,13.59
2017-01-20T10:23:42.776Z,13.56
2017-01-20T10:24:51.768Z,13.44
2017-01-20T10:26:01.161Z,13.47
2017-01-20T10:27:10.151Z,13.44
2017-01-20T10:28:19.128Z,13.47
2017-01-20T10:29:28.116Z,13.49
2017-01-20T10:30:37.094Z,13.47
2017-01-20T10:31:46.081Z,13.56
2017-01-20T10:32:55.062Z,13.43
2017-01-20T10:34:04.060Z,13.5
2017-01-20T10:35:13.046Z,13.47
2017-01-20T10:36:22.023Z,13.56
2017-01-20T10:37:31.020Z,13.59
2017-01-20T10:38:40.008Z,13.51
2017-01-20T10:39:48.989Z,13.49
2017-01-20T10:40:57.976Z,13.47
2017-01-20T10:42:06.970Z,13.49
2017-01-20T10:43:15.937Z,13.44
2017-01-20T10:44:24.936Z,13.56
2017-01-20T10:45:33.960Z,13.54
2017-01-20T10:46:42.945Z,13.49
2017-01-20T10:47:51.924Z,13.59
2017-01-20T10:49:00.902Z,13.51
2017-01-20T10:50:09.896Z,13.54
2017-01-20T10:51:18.892Z,13.73
2017-01-20T10:52:27.900Z,14.3
2017-01-20T10:53:36.875Z,14.84
2017-01-20T10:54:45.865Z,15.31
2017-01-20T10:55:54.846Z,15.53
2017-01-20T10:57:03.836Z,15.97
2017-01-20T10:58:12.832Z,16.27
2017-01-20T10:59:21.829Z,16.35
2017-01-20T11:00:30.813Z,16.73
2017-01-20T11:01:39.801Z,16.9
2017-01-20T11:02:48.782Z,16.99
2017-01-20T11:03:57.770Z,17.26
2017-01-20T11:05:07.138Z,17.53
2017-01-20T11:06:16.132Z,17.66
2017-01-20T11:07:25.112Z,17.86
2017-01-20T11:08:34.104Z,17.92
2017-01-20T11:09:43.099Z,17.98
2017-01-20T11:10:52.083Z,18.02
2017-01-20T11:12:01.205Z,18.31
2017-01-20T11:13:10.251Z,18.43
2017-01-20T11:14:19.247Z,18.61
2017-01-20T11:15:28.235Z,18.71
2017-01-20T11:16:37.226Z,18.84
2017-01-20T11:17:46.221Z,18.83
2017-01-20T11:18:55.202Z,18.74
2017-01-20T11:20:04.188Z,18.49
2017-01-20T11:21:13.598Z,18.21
2017-01-20T11:22:22.590Z,18.03
2017-01-20T11:23:31.578Z,17.86
2017-01-20T11:24:40.587Z,17.91
2017-01-20T11:25:49.578Z,17.71
2017-01-20T11:26:58.551Z,17.71
2017-01-20T11:28:07.573Z,17.74
2017-01-20T11:29:16.563Z,17.67
2017-01-20T11:30:25.531Z,17.69
2017-01-20T11:31:34.524Z,17.71
2017-01-20T11:32:43.511Z,17.74
2017-01-20T11:33:52.482Z,17.62
2017-01-20T11:35:01.468Z,17.66
2017-01-20T11:36:10.472Z,17.76
2017-01-20T11:37:19.461Z,17.76
2017-01-20T11:38:28.438Z,17.66
2017-01-20T11:39:37.421Z,17.7
2017-01-20T11:40:46.415Z,17.62
2017-01-20T11:41:55.412Z,17.67
2017-01-20T11:43:04.396Z,17.74
2017-01-20T11:44:13.371Z,17.77
2017-01-20T11:45:22.368Z,17.67
2017-01-20T11:46:31.355Z,17.77
2017-01-20T11:47:40.350Z,17.76
2017-01-20T11:48:49.344Z,17.84
2017-01-20T11:49:58.342Z,17.91
2017-01-20T11:51:07.330Z,17.8
2017-01-20T11:52:16.323Z,17.82
2017-01-20T11:53:25.299Z,17.84
2017-01-20T11:54:34.286Z,17.86
2017-01-20T11:55:43.278Z,17.89
2017-01-20T11:56:52.277Z,17.89
2017-01-20T11:58:01.261Z,17.85
2017-01-20T11:59:10.275Z,17.91
2017-01-20T12:00:19.256Z,17.99
2017-01-20T12:01:28.249Z,17.86
2017-01-20T12:02:37.254Z,17.91
2017-01-20T12:03:46.786Z,17.96
2017-01-20T12:04:56.957Z,17.91
2017-01-20T12:06:05.953Z,17.92
2017-01-20T12:07:14.944Z,17.96
2017-01-20T12:08:23.931Z,17.96
2017-01-20T12:09:32.917Z,18.02
2017-01-20T12:10:41.996Z,17.96
2017-01-20T12:11:51.387Z,17.99
2017-01-20T12:13:00.372Z,18.07
2017-01-20T12:14:09.366Z,18.07
2017-01-20T12:15:18.347Z,18.04
2017-01-20T12:16:27.355Z,18.13
2017-01-20T12:17:36.338Z,18.17
2017-01-20T12:18:45.379Z,18.17
2017-01-20T12:19:54.382Z,18.19
2017-01-20T12:21:03.385Z,18.24
2017-01-20T12:22:12.369Z,18.22
2017-01-20T12:23:21.355Z,18.28
2017-01-20T12:24:30.339Z,18.31
2017-01-20T12:25:39.321Z,18.25
2017-01-20T12:26:48.323Z,18.43
2017-01-20T12:27:57.329Z,18.47
2017-01-20T12:29:06.322Z,18.43
2017-01-20T12:30:15.300Z,18.44
2017-01-20T12:31:24.318Z,18.42
2017-01-20T12:32:33.308Z,18.47
2017-01-20T12:33:42.302Z,18.47
2017-01-20T12:34:51.297Z,18.43
2017-01-20T12:36:00.277Z,18.46
2017-01-20T12:37:09.268Z,18.47
2017-01-20T12:38:18.271Z,18.51
2017-01-20T12:39:27.271Z,18.49
2017-01-20T12:40:36.253Z,18.54
2017-01-20T12:41:45.272Z,18.54
2017-01-20T12:42:54.272Z,18.53
2017-01-20T12:44:03.251Z,18.51
2017-01-20T12:45:12.259Z,18.65
2017-01-20T12:46:21.273Z,18.57
2017-01-20T12:47:30.261Z,18.65
2017-01-20T12:48:39.256Z,18.57
2017-01-20T12:49:48.253Z,18.66
2017-01-20T12:50:57.247Z,18.47
2017-01-20T12:52:06.249Z,18.26
2017-01-20T12:53:15.227Z,18.25
2017-01-20T12:54:24.215Z,18.24
2017-01-20T12:55:33.208Z,18.06
2017-01-20T12:56:42.203Z,18.1
2017-01-20T12:57:51.185Z,17.99
2017-01-20T12:59:00.172Z,17.99
2017-01-20T13:00:09.166Z,18.04
2017-01-20T13:01:18.201Z,17.95
2017-01-20T13:02:27.191Z,17.64
2017-01-20T13:03:36.182Z,17.15
2017-01-20T13:04:45.161Z,16.77
2017-01-20T13:05:54.145Z,16.37
2017-01-20T13:07:03.135Z,16.23
2017-01-20T13:08:12.121Z,16.01
2017-01-20T13:09:21.118Z,15.85
2017-01-20T13:10:30.093Z,15.74
2017-01-20T13:11:39.094Z,15.71
2017-01-20T13:12:48.092Z,15.71
2017-01-20T13:13:57.074Z,15.74
2017-01-20T13:15:06.095Z,15.53
2017-01-20T13:16:15.075Z,15.44
2017-01-20T13:17:24.063Z,15.44
2017-01-20T13:18:33.049Z,15.36
2017-01-20T13:19:42.049Z,15.49
2017-01-20T13:20:51.025Z,15.38
2017-01-20T13:22:00.013Z,15.63
2017-01-20T13:23:08.996Z,15.71
2017-01-20T13:24:17.984Z,15.63
2017-01-20T13:25:26.971Z,15.44
2017-01-20T13:26:36.116Z,15.23
2017-01-20T13:27:45.101Z,15.26
2017-01-20T13:28:54.097Z,15.13
2017-01-20T13:30:03.089Z,15.42
2017-01-20T13:31:12.384Z,15.92
2017-01-20T13:32:21.373Z,16.29
2017-01-20T13:33:30.366Z,16.35
2017-01-20T13:34:39.366Z,16.42
2017-01-20T13:35:48.355Z,16.47
2017-01-20T13:36:57.329Z,16.66
2017-01-20T13:38:06.337Z,16.67
2017-01-20T13:39:15.336Z,16.82
2017-01-20T13:40:24.330Z,16.82
2017-01-20T13:41:33.752Z,16.73
2017-01-20T13:42:42.731Z,16.78
2017-01-20T13:43:51.722Z,16.81
2017-01-20T13:45:00.699Z,16.99
2017-01-20T13:46:09.687Z,16.81
2017-01-20T13:47:18.677Z,16.74
2017-01-20T13:48:27.658Z,16.73
2017-01-20T13:49:36.632Z,16.77
2017-01-20T13:50:45.617Z,16.73
2017-01-20T13:51:54.597Z,16.8
2017-01-20T13:53:03.584Z,16.74
2017-01-20T13:54:12.578Z,16.75
2017-01-20T13:55:21.567Z,16.74
2017-01-20T13:56:30.546Z,16.85
2017-01-20T13:57:39.538Z,16.99
2017-01-20T13:58:48.512Z,16.96
2017-01-20T13:59:57.514Z,17.02
2017-01-20T14:01:06.514Z,16.87
2017-01-20T14:02:15.502Z,16.78
2017-01-20T14:03:24.480Z,16.6
2017-01-20T14:04:33.456Z,16.8
2017-01-20T14:05:42.448Z,16.93
2017-01-20T14:06:51.453Z,16.85
2017-01-20T14:08:00.441Z,16.82
2017-01-20T14:09:09.435Z,16.67
2017-01-20T14:10:18.417Z,16.65
2017-01-20T14:11:27.435Z,16.48
2017-01-20T14:12:36.429Z,16.75
2017-01-20T14:13:45.418Z,16.63
2017-01-20T14:14:54.422Z,16.6
2017-01-20T14:16:03.814Z,16.78
2017-01-20T14:17:12.802Z,16.75
2017-01-20T14:18:21.800Z,16.65
2017-01-20T14:19:30.791Z,16.89
2017-01-20T14:20:39.772Z,16.74
2017-01-20T14:21:48.766Z,16.65
2017-01-20T14:22:57.753Z,16.55
2017-01-20T14:24:06.731Z,16.47
2017-01-20T14:25:15.722Z,16.52
2017-01-20T14:26:24.720Z,16.45
2017-01-20T14:27:33.797Z,16.47
2017-01-20T14:28:42.795Z,16.66
2017-01-20T14:29:51.811Z,16.6
2017-01-20T14:31:00.796Z,16.48
2017-01-20T14:32:09.781Z,16.47
2017-01-20T14:33:18.767Z,16.42
2017-01-20T14:34:27.783Z,16.48
2017-01-20T14:35:36.801Z,16.56
2017-01-20T14:36:45.786Z,16.66
2017-01-20T14:37:54.766Z,16.58
2017-01-20T14:39:03.762Z,16.6
2017-01-20T14:40:12.745Z,16.69
2017-01-20T14:41:21.731Z,16.82
2017-01-20T14:42:30.724Z,16.81
2017-01-20T14:43:39.715Z,16.89
2017-01-20T14:44:48.708Z,16.9
2017-01-20T14:45:57.700Z,16.9
2017-01-20T14:47:06.685Z,16.9
2017-01-20T14:48:15.673Z,16.95
2017-01-20T14:49:24.654Z,16.75
2017-01-20T14:50:33.635Z,16.74
2017-01-20T14:51:42.631Z,16.69